sensor_id;sensor_type;location;lat;lon;timestamp;P1;durP1;ratioP1;P2;durP2;ratioP2
5153;SDS011;2595;53.584;10.084;2022-10-31T00:00:21;30.87;;;23.83;;
5153;SDS011;2595;53.584;10.084;2022-10-31T00:02:47;30.40;;;23.53;;
5153;SDS011;2595;53.584;10.084;2022-10-31T00:05:12;31.30;;;25.20;;
5153;SDS011;2595;53.584;10.084;2022-10-31T00:07:38;31.50;;;24.90;;
5153;SDS011;2595;53.584;10.084;2022-10-31T00:10:04;31.47;;;23.10;;
5153;SDS011;2595;53.584;10.084;2022-10-31T00:12:30;28.70;;;24.63;;
5153;SDS011;2595;53.584;10.084;2022-10-31T00:15:02;28.57;;;24.27;;
5153;SDS011;2595;53.584;10.084;2022-10-31T00:17:28;33.80;;;26.17;;
5153;SDS011;2595;53.584;10.084;2022-10-31T00:19:53;30.53;;;23.90;;
5153;SDS011;2595;53.584;10.084;2022-10-31T00:22:19;28.57;;;22.47;;
5153;SDS011;2595;53.584;10.084;2022-10-31T00:24:45;36.13;;;25.17;;
5153;SDS011;2595;53.584;10.084;2022-10-31T00:27:10;29.27;;;22.93;;
5153;SDS011;2595;53.584;10.084;2022-10-31T00:29:36;28.67;;;22.23;;
5153;SDS011;2595;53.584;10.084;2022-10-31T00:32:02;35.40;;;23.17;;
5153;SDS011;2595;53.584;10.084;2022-10-31T00:34:27;29.87;;;22.87;;
5153;SDS011;2595;53.584;10.084;2022-10-31T00:36:53;29.53;;;24.10;;
5153;SDS011;2595;53.584;10.084;2022-10-31T00:39:19;32.47;;;24.40;;
5153;SDS011;2595;53.584;10.084;2022-10-31T00:41:44;35.13;;;23.70;;
5153;SDS011;2595;53.584;10.084;2022-10-31T00:44:10;31.80;;;24.77;;
5153;SDS011;2595;53.584;10.084;2022-10-31T00:46:35;25.53;;;22.50;;
5153;SDS011;2595;53.584;10.084;2022-10-31T00:49:01;28.70;;;22.77;;
5153;SDS011;2595;53.584;10.084;2022-10-31T00:51:27;31.83;;;22.97;;
5153;SDS011;2595;53.584;10.084;2022-10-31T00:53:52;32.40;;;25.17;;
5153;SDS011;2595;53.584;10.084;2022-10-31T00:56:18;26.03;;;22.40;;
5153;SDS011;2595;53.584;10.084;2022-10-31T00:58:43;32.83;;;22.93;;
5153;SDS011;2595;53.584;10.084;2022-10-31T01:01:09;35.37;;;25.03;;
5153;SDS011;2595;53.584;10.084;2022-10-31T01:03:35;26.73;;;22.60;;
5153;SDS011;2595;53.584;10.084;2022-10-31T01:06:08;29.50;;;24.07;;
5153;SDS011;2595;53.584;10.084;2022-10-31T01:08:35;24.80;;;22.17;;
5153;SDS011;2595;53.584;10.084;2022-10-31T01:13:57;35.13;;;23.43;;
5153;SDS011;2595;53.584;10.084;2022-10-31T01:16:24;33.77;;;23.80;;
5153;SDS011;2595;53.584;10.084;2022-10-31T01:18:51;27.73;;;22.50;;
5153;SDS011;2595;53.584;10.084;2022-10-31T01:21:18;25.03;;;22.33;;
5153;SDS011;2595;53.584;10.084;2022-10-31T01:23:46;24.33;;;21.90;;
5153;SDS011;2595;53.584;10.084;2022-10-31T01:26:13;28.23;;;22.13;;
5153;SDS011;2595;53.584;10.084;2022-10-31T01:28:45;25.80;;;22.07;;
5153;SDS011;2595;53.584;10.084;2022-10-31T01:31:16;23.67;;;21.00;;
5153;SDS011;2595;53.584;10.084;2022-10-31T01:33:44;27.53;;;21.33;;
5153;SDS011;2595;53.584;10.084;2022-10-31T01:36:14;27.20;;;21.73;;
5153;SDS011;2595;53.584;10.084;2022-10-31T01:38:48;26.40;;;20.37;;
5153;SDS011;2595;53.584;10.084;2022-10-31T01:41:15;23.37;;;20.87;;
5153;SDS011;2595;53.584;10.084;2022-10-31T01:46:20;27.83;;;21.07;;
5153;SDS011;2595;53.584;10.084;2022-10-31T01:48:50;25.87;;;20.20;;
5153;SDS011;2595;53.584;10.084;2022-10-31T01:51:18;26.87;;;21.00;;
5153;SDS011;2595;53.584;10.084;2022-10-31T01:53:47;24.53;;;21.60;;
5153;SDS011;2595;53.584;10.084;2022-10-31T01:56:16;22.73;;;19.87;;
5153;SDS011;2595;53.584;10.084;2022-10-31T01:58:43;27.97;;;21.73;;
5153;SDS011;2595;53.584;10.084;2022-10-31T02:01:11;29.93;;;20.87;;
5153;SDS011;2595;53.584;10.084;2022-10-31T02:03:38;34.90;;;21.50;;
5153;SDS011;2595;53.584;10.084;2022-10-31T02:06:03;30.27;;;20.63;;
5153;SDS011;2595;53.584;10.084;2022-10-31T02:08:35;36.63;;;23.17;;
5153;SDS011;2595;53.584;10.084;2022-10-31T02:11:04;32.60;;;21.73;;
5153;SDS011;2595;53.584;10.084;2022-10-31T02:13:31;24.97;;;20.30;;
5153;SDS011;2595;53.584;10.084;2022-10-31T02:15:59;34.70;;;22.53;;
5153;SDS011;2595;53.584;10.084;2022-10-31T02:18:26;32.17;;;22.37;;
5153;SDS011;2595;53.584;10.084;2022-10-31T02:32:00;37.93;;;22.27;;
5153;SDS011;2595;53.584;10.084;2022-10-31T02:37:08;32.70;;;22.20;;
5153;SDS011;2595;53.584;10.084;2022-10-31T02:42:21;24.20;;;19.87;;
5153;SDS011;2595;53.584;10.084;2022-10-31T02:47:27;29.10;;;21.23;;
5153;SDS011;2595;53.584;10.084;2022-10-31T02:50:06;29.83;;;20.47;;
5153;SDS011;2595;53.584;10.084;2022-10-31T02:52:37;27.53;;;19.37;;
5153;SDS011;2595;53.584;10.084;2022-10-31T02:55:10;32.47;;;19.23;;
5153;SDS011;2595;53.584;10.084;2022-10-31T02:57:36;23.13;;;19.30;;
5153;SDS011;2595;53.584;10.084;2022-10-31T03:00:06;33.30;;;21.50;;
5153;SDS011;2595;53.584;10.084;2022-10-31T03:02:39;30.43;;;20.00;;
5153;SDS011;2595;53.584;10.084;2022-10-31T03:10:59;27.43;;;20.10;;
5153;SDS011;2595;53.584;10.084;2022-10-31T03:16:40;32.90;;;20.10;;
5153;SDS011;2595;53.584;10.084;2022-10-31T03:19:16;32.63;;;20.23;;
5153;SDS011;2595;53.584;10.084;2022-10-31T03:21:46;30.70;;;20.07;;
5153;SDS011;2595;53.584;10.084;2022-10-31T03:24:24;28.10;;;20.30;;
5153;SDS011;2595;53.584;10.084;2022-10-31T03:26:54;30.97;;;19.63;;
5153;SDS011;2595;53.584;10.084;2022-10-31T03:29:25;29.60;;;19.00;;
5153;SDS011;2595;53.584;10.084;2022-10-31T03:32:27;23.30;;;18.70;;
5153;SDS011;2595;53.584;10.084;2022-10-31T03:35:05;30.90;;;18.90;;
5153;SDS011;2595;53.584;10.084;2022-10-31T03:37:34;30.87;;;20.10;;
5153;SDS011;2595;53.584;10.084;2022-10-31T03:40:02;36.30;;;21.40;;
5153;SDS011;2595;53.584;10.084;2022-10-31T03:42:33;22.30;;;19.37;;
5153;SDS011;2595;53.584;10.084;2022-10-31T03:45:06;24.90;;;20.67;;
5153;SDS011;2595;53.584;10.084;2022-10-31T03:47:33;27.37;;;19.30;;
5153;SDS011;2595;53.584;10.084;2022-10-31T03:50:01;21.17;;;16.93;;
5153;SDS011;2595;53.584;10.084;2022-10-31T03:52:35;21.70;;;18.70;;
5153;SDS011;2595;53.584;10.084;2022-10-31T03:58:00;27.30;;;18.37;;
5153;SDS011;2595;53.584;10.084;2022-10-31T04:00:30;25.37;;;16.97;;
5153;SDS011;2595;53.584;10.084;2022-10-31T04:03:20;27.53;;;18.63;;
5153;SDS011;2595;53.584;10.084;2022-10-31T04:05:47;23.23;;;18.43;;
5153;SDS011;2595;53.584;10.084;2022-10-31T04:08:17;29.20;;;18.50;;
5153;SDS011;2595;53.584;10.084;2022-10-31T04:10:46;33.57;;;21.60;;
5153;SDS011;2595;53.584;10.084;2022-10-31T04:13:15;29.93;;;19.03;;
5153;SDS011;2595;53.584;10.084;2022-10-31T04:15:45;28.63;;;20.20;;
5153;SDS011;2595;53.584;10.084;2022-10-31T04:18:12;33.30;;;20.90;;
5153;SDS011;2595;53.584;10.084;2022-10-31T04:20:39;35.80;;;19.83;;
5153;SDS011;2595;53.584;10.084;2022-10-31T04:23:25;32.97;;;20.83;;
5153;SDS011;2595;53.584;10.084;2022-10-31T04:25:51;29.27;;;19.60;;
5153;SDS011;2595;53.584;10.084;2022-10-31T04:28:17;28.97;;;20.70;;
5153;SDS011;2595;53.584;10.084;2022-10-31T04:30:43;33.10;;;18.37;;
5153;SDS011;2595;53.584;10.084;2022-10-31T04:33:08;29.53;;;18.53;;
5153;SDS011;2595;53.584;10.084;2022-10-31T04:35:34;24.67;;;19.63;;
5153;SDS011;2595;53.584;10.084;2022-10-31T04:38:00;31.23;;;21.27;;
5153;SDS011;2595;53.584;10.084;2022-10-31T04:40:25;26.63;;;19.03;;
5153;SDS011;2595;53.584;10.084;2022-10-31T04:42:51;29.77;;;19.13;;
5153;SDS011;2595;53.584;10.084;2022-10-31T04:45:17;25.73;;;18.10;;
5153;SDS011;2595;53.584;10.084;2022-10-31T04:47:42;29.27;;;18.90;;
5153;SDS011;2595;53.584;10.084;2022-10-31T04:50:08;28.70;;;19.40;;
5153;SDS011;2595;53.584;10.084;2022-10-31T04:52:40;34.17;;;21.47;;
5153;SDS011;2595;53.584;10.084;2022-10-31T04:55:07;29.27;;;19.53;;
5153;SDS011;2595;53.584;10.084;2022-10-31T04:57:41;29.70;;;19.80;;
5153;SDS011;2595;53.584;10.084;2022-10-31T05:00:11;26.50;;;20.23;;
5153;SDS011;2595;53.584;10.084;2022-10-31T05:02:45;27.07;;;18.60;;
5153;SDS011;2595;53.584;10.084;2022-10-31T05:05:15;29.47;;;18.40;;
5153;SDS011;2595;53.584;10.084;2022-10-31T05:07:44;30.43;;;21.20;;
5153;SDS011;2595;53.584;10.084;2022-10-31T05:10:11;39.87;;;21.70;;
5153;SDS011;2595;53.584;10.084;2022-10-31T05:12:44;34.33;;;20.70;;
5153;SDS011;2595;53.584;10.084;2022-10-31T05:15:15;37.67;;;20.93;;
5153;SDS011;2595;53.584;10.084;2022-10-31T05:17:41;36.13;;;20.83;;
5153;SDS011;2595;53.584;10.084;2022-10-31T05:20:07;38.87;;;21.20;;
5153;SDS011;2595;53.584;10.084;2022-10-31T05:22:33;30.10;;;20.83;;
5153;SDS011;2595;53.584;10.084;2022-10-31T05:24:59;34.47;;;20.97;;
5153;SDS011;2595;53.584;10.084;2022-10-31T05:27:24;33.03;;;21.80;;
5153;SDS011;2595;53.584;10.084;2022-10-31T05:29:51;33.33;;;21.37;;
5153;SDS011;2595;53.584;10.084;2022-10-31T05:32:16;38.40;;;23.50;;
5153;SDS011;2595;53.584;10.084;2022-10-31T05:34:42;37.90;;;22.80;;
5153;SDS011;2595;53.584;10.084;2022-10-31T05:37:08;39.00;;;22.57;;
5153;SDS011;2595;53.584;10.084;2022-10-31T05:39:33;38.53;;;22.07;;
5153;SDS011;2595;53.584;10.084;2022-10-31T05:41:59;35.53;;;23.10;;
5153;SDS011;2595;53.584;10.084;2022-10-31T05:44:24;32.97;;;22.07;;
5153;SDS011;2595;53.584;10.084;2022-10-31T05:46:50;39.27;;;21.57;;
5153;SDS011;2595;53.584;10.084;2022-10-31T05:49:16;32.93;;;20.37;;
5153;SDS011;2595;53.584;10.084;2022-10-31T05:51:42;33.83;;;21.43;;
5153;SDS011;2595;53.584;10.084;2022-10-31T05:54:08;34.23;;;21.90;;
5153;SDS011;2595;53.584;10.084;2022-10-31T05:56:33;33.70;;;22.23;;
5153;SDS011;2595;53.584;10.084;2022-10-31T05:58:59;34.53;;;21.27;;
5153;SDS011;2595;53.584;10.084;2022-10-31T06:01:25;38.83;;;22.90;;
5153;SDS011;2595;53.584;10.084;2022-10-31T06:03:50;33.47;;;20.30;;
5153;SDS011;2595;53.584;10.084;2022-10-31T06:06:16;32.27;;;21.03;;
5153;SDS011;2595;53.584;10.084;2022-10-31T06:08:42;39.20;;;21.70;;
5153;SDS011;2595;53.584;10.084;2022-10-31T06:11:07;32.77;;;21.00;;
5153;SDS011;2595;53.584;10.084;2022-10-31T06:13:33;37.80;;;21.13;;
5153;SDS011;2595;53.584;10.084;2022-10-31T06:15:58;41.47;;;22.50;;
5153;SDS011;2595;53.584;10.084;2022-10-31T06:18:24;34.73;;;20.73;;
5153;SDS011;2595;53.584;10.084;2022-10-31T06:20:50;37.80;;;20.70;;
5153;SDS011;2595;53.584;10.084;2022-10-31T06:23:15;42.00;;;21.80;;
5153;SDS011;2595;53.584;10.084;2022-10-31T06:25:41;38.40;;;21.20;;
5153;SDS011;2595;53.584;10.084;2022-10-31T06:28:07;40.50;;;22.30;;
5153;SDS011;2595;53.584;10.084;2022-10-31T06:30:32;41.33;;;22.80;;
5153;SDS011;2595;53.584;10.084;2022-10-31T06:33:02;39.97;;;22.87;;
5153;SDS011;2595;53.584;10.084;2022-10-31T06:35:28;39.80;;;21.00;;
5153;SDS011;2595;53.584;10.084;2022-10-31T06:37:54;45.00;;;22.47;;
5153;SDS011;2595;53.584;10.084;2022-10-31T06:40:20;47.07;;;24.80;;
5153;SDS011;2595;53.584;10.084;2022-10-31T06:42:46;46.40;;;23.83;;
5153;SDS011;2595;53.584;10.084;2022-10-31T06:45:12;41.20;;;22.27;;
5153;SDS011;2595;53.584;10.084;2022-10-31T06:47:38;44.07;;;22.93;;
5153;SDS011;2595;53.584;10.084;2022-10-31T06:50:03;44.47;;;22.47;;
5153;SDS011;2595;53.584;10.084;2022-10-31T06:52:29;40.80;;;21.40;;
5153;SDS011;2595;53.584;10.084;2022-10-31T06:54:55;43.37;;;22.77;;
5153;SDS011;2595;53.584;10.084;2022-10-31T06:57:21;44.67;;;21.70;;
5153;SDS011;2595;53.584;10.084;2022-10-31T06:59:46;38.43;;;22.80;;
5153;SDS011;2595;53.584;10.084;2022-10-31T07:02:12;47.07;;;21.10;;
5153;SDS011;2595;53.584;10.084;2022-10-31T07:04:37;38.03;;;21.17;;
5153;SDS011;2595;53.584;10.084;2022-10-31T07:07:03;39.27;;;21.10;;
5153;SDS011;2595;53.584;10.084;2022-10-31T07:09:29;38.60;;;21.80;;
5153;SDS011;2595;53.584;10.084;2022-10-31T07:11:55;38.67;;;20.00;;
5153;SDS011;2595;53.584;10.084;2022-10-31T07:14:20;40.30;;;20.83;;
5153;SDS011;2595;53.584;10.084;2022-10-31T07:16:49;39.77;;;20.90;;
5153;SDS011;2595;53.584;10.084;2022-10-31T07:19:16;39.60;;;20.40;;
5153;SDS011;2595;53.584;10.084;2022-10-31T07:21:42;41.83;;;20.93;;
5153;SDS011;2595;53.584;10.084;2022-10-31T07:24:07;38.17;;;19.97;;
5153;SDS011;2595;53.584;10.084;2022-10-31T07:26:33;35.70;;;20.90;;
5153;SDS011;2595;53.584;10.084;2022-10-31T07:28:59;40.27;;;21.93;;
5153;SDS011;2595;53.584;10.084;2022-10-31T07:31:25;32.60;;;19.17;;
5153;SDS011;2595;53.584;10.084;2022-10-31T07:33:50;35.27;;;19.87;;
5153;SDS011;2595;53.584;10.084;2022-10-31T07:36:16;31.83;;;19.10;;
5153;SDS011;2595;53.584;10.084;2022-10-31T07:38:41;38.30;;;20.40;;
5153;SDS011;2595;53.584;10.084;2022-10-31T07:41:07;35.87;;;20.53;;
5153;SDS011;2595;53.584;10.084;2022-10-31T07:43:33;44.67;;;21.10;;
5153;SDS011;2595;53.584;10.084;2022-10-31T07:45:59;39.97;;;21.40;;
5153;SDS011;2595;53.584;10.084;2022-10-31T07:48:25;34.23;;;21.47;;
5153;SDS011;2595;53.584;10.084;2022-10-31T07:50:50;35.97;;;21.10;;
5153;SDS011;2595;53.584;10.084;2022-10-31T07:53:16;29.33;;;18.37;;
5153;SDS011;2595;53.584;10.084;2022-10-31T07:55:42;38.07;;;20.57;;
5153;SDS011;2595;53.584;10.084;2022-10-31T07:58:09;32.93;;;20.43;;
5153;SDS011;2595;53.584;10.084;2022-10-31T08:00:37;38.33;;;22.30;;
5153;SDS011;2595;53.584;10.084;2022-10-31T08:03:07;34.10;;;20.53;;
5153;SDS011;2595;53.584;10.084;2022-10-31T08:05:38;33.93;;;20.07;;
5153;SDS011;2595;53.584;10.084;2022-10-31T08:08:05;32.13;;;18.27;;
5153;SDS011;2595;53.584;10.084;2022-10-31T08:10:32;34.77;;;19.57;;
5153;SDS011;2595;53.584;10.084;2022-10-31T08:12:59;34.40;;;20.43;;
5153;SDS011;2595;53.584;10.084;2022-10-31T08:15:28;37.10;;;21.00;;
5153;SDS011;2595;53.584;10.084;2022-10-31T08:17:54;31.00;;;19.23;;
5153;SDS011;2595;53.584;10.084;2022-10-31T08:20:20;37.33;;;18.77;;
5153;SDS011;2595;53.584;10.084;2022-10-31T08:22:56;30.27;;;20.03;;
5153;SDS011;2595;53.584;10.084;2022-10-31T08:25:26;33.40;;;19.70;;
5153;SDS011;2595;53.584;10.084;2022-10-31T08:27:54;30.27;;;20.20;;
5153;SDS011;2595;53.584;10.084;2022-10-31T08:30:21;30.47;;;17.60;;
5153;SDS011;2595;53.584;10.084;2022-10-31T08:32:57;35.17;;;19.20;;
5153;SDS011;2595;53.584;10.084;2022-10-31T08:35:26;37.67;;;18.87;;
5153;SDS011;2595;53.584;10.084;2022-10-31T08:37:55;28.10;;;17.83;;
5153;SDS011;2595;53.584;10.084;2022-10-31T08:40:22;41.50;;;19.20;;
5153;SDS011;2595;53.584;10.084;2022-10-31T08:42:54;35.70;;;16.67;;
5153;SDS011;2595;53.584;10.084;2022-10-31T08:45:28;30.57;;;19.40;;
5153;SDS011;2595;53.584;10.084;2022-10-31T08:48:03;29.63;;;19.60;;
5153;SDS011;2595;53.584;10.084;2022-10-31T08:50:31;35.13;;;18.60;;
5153;SDS011;2595;53.584;10.084;2022-10-31T08:53:05;28.07;;;18.90;;
5153;SDS011;2595;53.584;10.084;2022-10-31T08:55:36;39.40;;;19.10;;
5153;SDS011;2595;53.584;10.084;2022-10-31T08:58:03;31.80;;;18.67;;
5153;SDS011;2595;53.584;10.084;2022-10-31T09:00:32;33.20;;;18.70;;
5153;SDS011;2595;53.584;10.084;2022-10-31T09:02:59;29.97;;;18.30;;
5153;SDS011;2595;53.584;10.084;2022-10-31T09:05:29;30.00;;;16.87;;
5153;SDS011;2595;53.584;10.084;2022-10-31T09:07:56;25.60;;;16.57;;
5153;SDS011;2595;53.584;10.084;2022-10-31T09:10:23;35.03;;;17.67;;
5153;SDS011;2595;53.584;10.084;2022-10-31T09:15:46;33.90;;;17.80;;
5153;SDS011;2595;53.584;10.084;2022-10-31T09:18:14;26.97;;;17.00;;
5153;SDS011;2595;53.584;10.084;2022-10-31T09:20:41;27.13;;;17.17;;
5153;SDS011;2595;53.584;10.084;2022-10-31T09:23:15;25.47;;;17.50;;
5153;SDS011;2595;53.584;10.084;2022-10-31T09:25:42;33.73;;;18.10;;
5153;SDS011;2595;53.584;10.084;2022-10-31T09:28:10;29.07;;;17.90;;
5153;SDS011;2595;53.584;10.084;2022-10-31T09:30:37;28.90;;;16.70;;
5153;SDS011;2595;53.584;10.084;2022-10-31T09:33:05;28.33;;;17.47;;
5153;SDS011;2595;53.584;10.084;2022-10-31T09:35:32;28.37;;;17.60;;
5153;SDS011;2595;53.584;10.084;2022-10-31T09:38:02;25.90;;;15.97;;
5153;SDS011;2595;53.584;10.084;2022-10-31T09:40:32;25.30;;;16.43;;
5153;SDS011;2595;53.584;10.084;2022-10-31T09:43:12;28.07;;;17.17;;
5153;SDS011;2595;53.584;10.084;2022-10-31T09:48:29;28.80;;;17.03;;
5153;SDS011;2595;53.584;10.084;2022-10-31T09:50:58;37.67;;;21.40;;
5153;SDS011;2595;53.584;10.084;2022-10-31T09:56:20;27.33;;;16.23;;
5153;SDS011;2595;53.584;10.084;2022-10-31T09:58:52;15.70;;;12.23;;
5153;SDS011;2595;53.584;10.084;2022-10-31T10:04:19;16.70;;;12.50;;
5153;SDS011;2595;53.584;10.084;2022-10-31T10:06:47;22.50;;;13.30;;
5153;SDS011;2595;53.584;10.084;2022-10-31T10:09:17;22.43;;;13.23;;
5153;SDS011;2595;53.584;10.084;2022-10-31T10:14:35;23.60;;;12.90;;
5153;SDS011;2595;53.584;10.084;2022-10-31T10:17:24;23.63;;;14.40;;
5153;SDS011;2595;53.584;10.084;2022-10-31T10:20:16;19.17;;;13.23;;
5153;SDS011;2595;53.584;10.084;2022-10-31T10:25:40;24.00;;;13.63;;
5153;SDS011;2595;53.584;10.084;2022-10-31T10:36:37;18.67;;;14.07;;
5153;SDS011;2595;53.584;10.084;2022-10-31T10:39:30;19.90;;;12.70;;
5153;SDS011;2595;53.584;10.084;2022-10-31T10:42:04;20.20;;;12.03;;
5153;SDS011;2595;53.584;10.084;2022-10-31T10:44:54;18.20;;;12.53;;
5153;SDS011;2595;53.584;10.084;2022-10-31T10:47:42;20.63;;;12.23;;
5153;SDS011;2595;53.584;10.084;2022-10-31T10:50:17;22.50;;;12.50;;
5153;SDS011;2595;53.584;10.084;2022-10-31T10:58:13;14.30;;;12.73;;
5153;SDS011;2595;53.584;10.084;2022-10-31T11:00:43;15.60;;;12.97;;
5153;SDS011;2595;53.584;10.084;2022-10-31T11:03:14;16.43;;;12.33;;
5153;SDS011;2595;53.584;10.084;2022-10-31T11:05:43;19.70;;;12.80;;
5153;SDS011;2595;53.584;10.084;2022-10-31T11:08:32;17.00;;;12.30;;
5153;SDS011;2595;53.584;10.084;2022-10-31T11:11:41;16.13;;;12.73;;
5153;SDS011;2595;53.584;10.084;2022-10-31T11:14:03;16.23;;;11.53;;
5153;SDS011;2595;53.584;10.084;2022-10-31T11:16:37;16.80;;;10.67;;
5153;SDS011;2595;53.584;10.084;2022-10-31T11:19:23;18.63;;;11.60;;
5153;SDS011;2595;53.584;10.084;2022-10-31T11:21:51;22.23;;;12.13;;
5153;SDS011;2595;53.584;10.084;2022-10-31T11:24:19;19.43;;;12.93;;
5153;SDS011;2595;53.584;10.084;2022-10-31T11:26:46;15.07;;;12.27;;
5153;SDS011;2595;53.584;10.084;2022-10-31T11:29:17;19.90;;;14.40;;
5153;SDS011;2595;53.584;10.084;2022-10-31T11:31:46;16.97;;;12.00;;
5153;SDS011;2595;53.584;10.084;2022-10-31T11:34:25;21.80;;;13.00;;
5153;SDS011;2595;53.584;10.084;2022-10-31T11:37:16;20.30;;;12.43;;
5153;SDS011;2595;53.584;10.084;2022-10-31T11:39:49;15.03;;;11.50;;
5153;SDS011;2595;53.584;10.084;2022-10-31T11:42:21;17.23;;;12.77;;
5153;SDS011;2595;53.584;10.084;2022-10-31T11:44:49;23.07;;;14.93;;
5153;SDS011;2595;53.584;10.084;2022-10-31T11:47:16;14.73;;;13.33;;
5153;SDS011;2595;53.584;10.084;2022-10-31T11:49:46;16.50;;;12.00;;
5153;SDS011;2595;53.584;10.084;2022-10-31T11:52:15;16.00;;;14.20;;
5153;SDS011;2595;53.584;10.084;2022-10-31T11:57:54;25.10;;;17.93;;
5153;SDS011;2595;53.584;10.084;2022-10-31T12:00:22;22.30;;;16.87;;
5153;SDS011;2595;53.584;10.084;2022-10-31T12:02:48;18.83;;;16.17;;
5153;SDS011;2595;53.584;10.084;2022-10-31T12:05:18;19.93;;;15.90;;
5153;SDS011;2595;53.584;10.084;2022-10-31T12:07:49;25.73;;;17.47;;
5153;SDS011;2595;53.584;10.084;2022-10-31T12:10:15;29.80;;;20.20;;
5153;SDS011;2595;53.584;10.084;2022-10-31T12:18:22;34.57;;;22.33;;
5153;SDS011;2595;53.584;10.084;2022-10-31T12:26:23;37.57;;;23.87;;
5153;SDS011;2595;53.584;10.084;2022-10-31T12:32:14;29.63;;;19.13;;
5153;SDS011;2595;53.584;10.084;2022-10-31T12:34:55;31.50;;;20.57;;
5153;SDS011;2595;53.584;10.084;2022-10-31T12:54:03;26.70;;;17.90;;
5153;SDS011;2595;53.584;10.084;2022-10-31T12:57:39;27.67;;;19.60;;
5153;SDS011;2595;53.584;10.084;2022-10-31T13:00:03;26.43;;;18.83;;
5153;SDS011;2595;53.584;10.084;2022-10-31T13:02:54;26.27;;;18.00;;
5153;SDS011;2595;53.584;10.084;2022-10-31T13:05:38;25.17;;;18.47;;
5153;SDS011;2595;53.584;10.084;2022-10-31T13:08:17;24.50;;;16.97;;
5153;SDS011;2595;53.584;10.084;2022-10-31T13:10:51;19.30;;;14.73;;
5153;SDS011;2595;53.584;10.084;2022-10-31T13:13:26;25.23;;;16.67;;
5153;SDS011;2595;53.584;10.084;2022-10-31T13:15:57;25.93;;;16.53;;
5153;SDS011;2595;53.584;10.084;2022-10-31T13:18:30;24.93;;;16.47;;
5153;SDS011;2595;53.584;10.084;2022-10-31T13:21:07;21.23;;;16.10;;
5153;SDS011;2595;53.584;10.084;2022-10-31T13:23:37;20.60;;;16.40;;
5153;SDS011;2595;53.584;10.084;2022-10-31T13:26:12;22.73;;;15.83;;
5153;SDS011;2595;53.584;10.084;2022-10-31T13:28:59;21.87;;;15.37;;
5153;SDS011;2595;53.584;10.084;2022-10-31T13:31:29;25.93;;;16.60;;
5153;SDS011;2595;53.584;10.084;2022-10-31T13:33:57;28.80;;;16.87;;
5153;SDS011;2595;53.584;10.084;2022-10-31T13:36:37;22.13;;;14.37;;
5153;SDS011;2595;53.584;10.084;2022-10-31T13:42:05;24.57;;;16.90;;
5153;SDS011;2595;53.584;10.084;2022-10-31T13:44:40;22.47;;;16.30;;
5153;SDS011;2595;53.584;10.084;2022-10-31T13:47:22;23.03;;;15.80;;
5153;SDS011;2595;53.584;10.084;2022-10-31T13:50:02;17.00;;;15.00;;
5153;SDS011;2595;53.584;10.084;2022-10-31T13:52:30;26.00;;;14.97;;
5153;SDS011;2595;53.584;10.084;2022-10-31T13:54:56;25.30;;;15.37;;
5153;SDS011;2595;53.584;10.084;2022-10-31T13:57:25;23.20;;;15.90;;
5153;SDS011;2595;53.584;10.084;2022-10-31T13:59:57;23.23;;;16.10;;
5153;SDS011;2595;53.584;10.084;2022-10-31T14:02:26;21.03;;;15.93;;
5153;SDS011;2595;53.584;10.084;2022-10-31T14:05:04;24.70;;;16.13;;
5153;SDS011;2595;53.584;10.084;2022-10-31T14:07:42;17.50;;;14.90;;
5153;SDS011;2595;53.584;10.084;2022-10-31T14:10:54;20.37;;;14.87;;
5153;SDS011;2595;53.584;10.084;2022-10-31T14:13:25;24.70;;;15.90;;
5153;SDS011;2595;53.584;10.084;2022-10-31T14:16:01;19.20;;;15.20;;
5153;SDS011;2595;53.584;10.084;2022-10-31T14:18:33;18.57;;;13.73;;
5153;SDS011;2595;53.584;10.084;2022-10-31T14:21:13;19.13;;;15.90;;
5153;SDS011;2595;53.584;10.084;2022-10-31T14:23:58;20.93;;;15.30;;
5153;SDS011;2595;53.584;10.084;2022-10-31T14:31:45;21.47;;;16.80;;
5153;SDS011;2595;53.584;10.084;2022-10-31T14:34:20;19.57;;;14.80;;
5153;SDS011;2595;53.584;10.084;2022-10-31T14:39:33;17.20;;;14.53;;
5153;SDS011;2595;53.584;10.084;2022-10-31T14:45:01;18.47;;;13.97;;
5153;SDS011;2595;53.584;10.084;2022-10-31T14:50:29;18.87;;;14.27;;
5153;SDS011;2595;53.584;10.084;2022-10-31T14:53:00;14.30;;;12.60;;
5153;SDS011;2595;53.584;10.084;2022-10-31T14:55:28;19.03;;;14.10;;
5153;SDS011;2595;53.584;10.084;2022-10-31T14:57:55;14.57;;;13.00;;
5153;SDS011;2595;53.584;10.084;2022-10-31T15:00:25;16.43;;;14.10;;
5153;SDS011;2595;53.584;10.084;2022-10-31T15:05:48;21.70;;;15.20;;
5153;SDS011;2595;53.584;10.084;2022-10-31T15:08:31;17.87;;;14.20;;
5153;SDS011;2595;53.584;10.084;2022-10-31T15:11:11;17.00;;;14.23;;
5153;SDS011;2595;53.584;10.084;2022-10-31T15:16:20;18.37;;;14.47;;
5153;SDS011;2595;53.584;10.084;2022-10-31T15:18:53;15.03;;;13.30;;
5153;SDS011;2595;53.584;10.084;2022-10-31T15:21:24;24.87;;;15.07;;
5153;SDS011;2595;53.584;10.084;2022-10-31T15:23:54;23.63;;;14.33;;
5153;SDS011;2595;53.584;10.084;2022-10-31T15:26:26;16.87;;;13.90;;
5153;SDS011;2595;53.584;10.084;2022-10-31T15:28:58;26.60;;;15.80;;
5153;SDS011;2595;53.584;10.084;2022-10-31T15:31:26;20.87;;;14.40;;
5153;SDS011;2595;53.584;10.084;2022-10-31T15:33:52;22.33;;;15.00;;
5153;SDS011;2595;53.584;10.084;2022-10-31T15:36:24;21.50;;;15.43;;
5153;SDS011;2595;53.584;10.084;2022-10-31T15:38:50;17.83;;;14.47;;
5153;SDS011;2595;53.584;10.084;2022-10-31T15:43:55;22.73;;;16.00;;
5153;SDS011;2595;53.584;10.084;2022-10-31T15:46:26;20.27;;;16.00;;
5153;SDS011;2595;53.584;10.084;2022-10-31T15:48:52;21.97;;;14.67;;
5153;SDS011;2595;53.584;10.084;2022-10-31T15:51:24;19.77;;;15.50;;
5153;SDS011;2595;53.584;10.084;2022-10-31T15:53:55;23.30;;;15.70;;
5153;SDS011;2595;53.584;10.084;2022-10-31T15:56:25;22.07;;;15.10;;
5153;SDS011;2595;53.584;10.084;2022-10-31T15:58:55;18.10;;;14.80;;
5153;SDS011;2595;53.584;10.084;2022-10-31T16:01:24;27.03;;;16.57;;
5153;SDS011;2595;53.584;10.084;2022-10-31T16:06:33;27.00;;;17.60;;
5153;SDS011;2595;53.584;10.084;2022-10-31T16:09:00;24.23;;;16.97;;
5153;SDS011;2595;53.584;10.084;2022-10-31T16:14:17;19.77;;;14.70;;
5153;SDS011;2595;53.584;10.084;2022-10-31T16:16:46;20.40;;;15.07;;
5153;SDS011;2595;53.584;10.084;2022-10-31T16:21:47;24.77;;;15.70;;
5153;SDS011;2595;53.584;10.084;2022-10-31T16:26:49;26.60;;;16.13;;
5153;SDS011;2595;53.584;10.084;2022-10-31T16:29:27;26.90;;;15.00;;
5153;SDS011;2595;53.584;10.084;2022-10-31T16:32:23;22.97;;;14.90;;
5153;SDS011;2595;53.584;10.084;2022-10-31T16:34:57;31.10;;;18.30;;
5153;SDS011;2595;53.584;10.084;2022-10-31T16:37:24;49.73;;;25.20;;
5153;SDS011;2595;53.584;10.084;2022-10-31T16:39:50;34.60;;;19.43;;
5153;SDS011;2595;53.584;10.084;2022-10-31T16:42:15;24.97;;;16.27;;
5153;SDS011;2595;53.584;10.084;2022-10-31T16:44:41;26.20;;;13.50;;
5153;SDS011;2595;53.584;10.084;2022-10-31T16:47:13;19.10;;;13.23;;
5153;SDS011;2595;53.584;10.084;2022-10-31T16:49:40;25.67;;;14.67;;
5153;SDS011;2595;53.584;10.084;2022-10-31T16:52:11;19.03;;;13.27;;
5153;SDS011;2595;53.584;10.084;2022-10-31T16:54:37;24.60;;;14.70;;
5153;SDS011;2595;53.584;10.084;2022-10-31T16:57:04;25.63;;;15.10;;
5153;SDS011;2595;53.584;10.084;2022-10-31T16:59:31;23.20;;;14.70;;
5153;SDS011;2595;53.584;10.084;2022-10-31T17:01:58;23.17;;;13.77;;
5153;SDS011;2595;53.584;10.084;2022-10-31T17:04:26;24.80;;;14.37;;
5153;SDS011;2595;53.584;10.084;2022-10-31T17:06:51;19.20;;;13.40;;